Weather at Sky Glen Airport

Public forecast

Using degrees Fahrenheit for public forecast. Weather courtesy of forecast.io.

Closest aviation weather report (METAR) to Sky Glen Airport

Closest report is North Central State Airport, 9.1 nm (16.9 km) SE. Retrieved 2020/09/26 00:56 UTC (37 minutes ago):

KSFZ 260056Z AUTO 00000KT 10SM CLR 18/16 A3013 RMK AO2 SLP148 T01830156

Closest aviation forecast (TAF) to Sky Glen Airport

Closest forecast is Worcester Regional Airport, 17.8 nm (33.0 km) NW. Retrieved 2020-09-26 00:42 UTC (51 minutes ago):

TAF KORH 252339Z 2600/2624 VRB03KT P6SM SCT200 FM260800 24004KT 5SM BR BKN250 FM260900 24004KT 1 1/2SM BR BKN020 FM261200 23004KT 2SM BR BKN030 FM261300 22004KT 5SM BR SCT040 FM262100 20008KT P6SM SCT070 BKN200